createdAt,value
2023-04-16T00:01:50.086Z,12.85
2023-04-16T00:04:24.609Z,12.97
2023-04-16T00:06:57.800Z,12.63
2023-04-16T00:09:31.051Z,12.55
2023-04-16T00:12:04.746Z,12.79
2023-04-16T00:14:38.189Z,13.06
2023-04-16T00:17:12.013Z,12.62
2023-04-16T00:19:46.619Z,12.88
2023-04-16T00:22:20.544Z,12.91
2023-04-16T00:24:54.037Z,12.95
2023-04-16T00:27:27.239Z,12.75
2023-04-16T00:30:00.220Z,12.81
2023-04-16T00:32:33.164Z,12.88
2023-04-16T00:35:08.433Z,13.16
2023-04-16T00:37:41.490Z,12.97
2023-04-16T00:40:14.640Z,12.79
2023-04-16T00:42:47.876Z,12.66
2023-04-16T00:45:20.951Z,12.98
2023-04-16T00:47:54.054Z,13.11
2023-04-16T00:50:28.817Z,12.68
2023-04-16T00:53:02.446Z,12.75
2023-04-16T00:55:35.860Z,12.91
2023-04-16T00:58:08.991Z,12.82
2023-04-16T01:00:42.052Z,12.66
2023-04-16T01:03:15.022Z,13.10
2023-04-16T01:05:50.749Z,13.01
2023-04-16T01:08:23.831Z,13.07
2023-04-16T01:10:57.294Z,13.09
2023-04-16T01:13:33.623Z,12.83
2023-04-16T01:16:07.966Z,12.77
2023-04-16T01:18:41.494Z,12.99
2023-04-16T01:21:16.174Z,13.06
2023-04-16T01:23:49.336Z,13.20
2023-04-16T01:26:22.484Z,13.04
2023-04-16T01:28:55.872Z,13.02
2023-04-16T01:31:28.902Z,13.02
2023-04-16T01:34:01.950Z,13.07
2023-04-16T01:36:36.750Z,12.97
2023-04-16T01:39:11.610Z,13.01
2023-04-16T01:41:45.098Z,12.99
2023-04-16T01:44:18.045Z,12.98
2023-04-16T01:46:51.037Z,12.79
2023-04-16T01:49:24.292Z,13.03
2023-04-16T01:51:58.734Z,12.68
2023-04-16T01:54:31.993Z,12.54
2023-04-16T01:57:05.424Z,12.52
2023-04-16T01:59:38.642Z,12.60
2023-04-16T02:02:12.348Z,12.82
2023-04-16T02:04:46.780Z,12.65
2023-04-16T02:07:21.091Z,12.76
2023-04-16T02:09:54.849Z,12.44
2023-04-16T02:12:28.657Z,12.75
2023-04-16T02:15:02.231Z,12.44
2023-04-16T02:17:35.641Z,12.61
2023-04-16T02:20:10.301Z,12.89
2023-04-16T02:22:44.843Z,12.59
2023-04-16T02:25:18.177Z,12.85
2023-04-16T02:27:51.416Z,12.81
2023-04-16T02:30:25.307Z,12.67
2023-04-16T02:32:58.457Z,12.59
2023-04-16T02:35:31.386Z,12.39
2023-04-16T02:38:05.929Z,12.56
2023-04-16T02:40:39.128Z,13.02
2023-04-16T02:43:12.183Z,12.74
2023-04-16T02:45:45.128Z,12.70
2023-04-16T02:48:18.126Z,12.58
2023-04-16T02:50:51.006Z,12.26
2023-04-16T02:53:26.487Z,12.53
2023-04-16T02:55:59.806Z,12.81
2023-04-16T02:58:32.912Z,12.58
2023-04-16T03:01:05.952Z,12.38
2023-04-16T03:03:39.071Z,12.41
2023-04-16T03:06:12.062Z,12.43
2023-04-16T03:08:46.523Z,12.56
2023-04-16T03:11:20.449Z,11.98
2023-04-16T03:13:53.942Z,12.08
2023-04-16T03:16:27.473Z,12.06
2023-04-16T03:19:00.789Z,12.09
2023-04-16T03:21:33.738Z,12.31
2023-04-16T03:24:08.381Z,12.27
2023-04-16T03:26:41.626Z,12.36
2023-04-16T03:29:14.607Z,12.44
2023-04-16T03:31:47.793Z,12.79
2023-04-16T03:34:22.630Z,12.44
2023-04-16T03:36:55.930Z,12.73
2023-04-16T03:39:30.799Z,12.70
2023-04-16T03:42:03.759Z,12.70
2023-04-16T03:44:36.650Z,12.55
2023-04-16T03:47:09.812Z,12.24
2023-04-16T03:49:42.986Z,12.57
2023-04-16T03:52:15.964Z,12.48
2023-04-16T03:54:50.646Z,12.84
2023-04-16T03:57:23.889Z,12.82
2023-04-16T03:59:57.173Z,12.63
2023-04-16T04:02:30.317Z,12.56
2023-04-16T04:05:03.810Z,12.46
2023-04-16T04:07:37.097Z,12.56
2023-04-16T04:10:12.360Z,12.74
2023-04-16T04:12:45.864Z,12.33
2023-04-16T04:15:19.302Z,12.20
2023-04-16T04:17:52.689Z,12.17
2023-04-16T04:20:26.146Z,12.26
2023-04-16T04:22:59.381Z,12.02
2023-04-16T04:25:34.170Z,12.08
2023-04-16T04:28:07.256Z,12.10
2023-04-16T04:30:40.348Z,12.36
2023-04-16T04:33:13.608Z,12.10
2023-04-16T04:35:46.489Z,12.05
2023-04-16T04:38:21.225Z,11.72
2023-04-16T04:40:55.877Z,11.97
2023-04-16T04:43:28.901Z,12.16
2023-04-16T04:46:01.810Z,12.22
2023-04-16T04:48:35.149Z,12.05
2023-04-16T04:51:08.198Z,11.70
2023-04-16T04:53:41.328Z,11.80
2023-04-16T04:56:15.982Z,11.78
2023-04-16T04:58:50.659Z,11.79
2023-04-16T05:01:23.677Z,11.82
2023-04-16T05:03:56.838Z,11.81
2023-04-16T05:06:29.757Z,11.84
2023-04-16T05:09:03.518Z,11.73
2023-04-16T05:11:38.087Z,11.56
2023-04-16T05:14:11.663Z,11.39
2023-04-16T05:16:45.118Z,11.43
2023-04-16T05:19:18.455Z,11.37
2023-04-16T05:21:51.780Z,11.47
2023-04-16T05:24:25.002Z,11.47
2023-04-16T05:26:59.529Z,11.43
2023-04-16T05:29:32.948Z,11.44
2023-04-16T05:32:06.128Z,11.62
2023-04-16T05:34:39.362Z,12.22
2023-04-16T05:37:12.322Z,11.98
2023-04-16T05:39:45.861Z,11.50
2023-04-16T05:42:20.655Z,12.04
2023-04-16T05:44:53.873Z,12.17
2023-04-16T05:47:26.858Z,12.22
2023-04-16T05:49:59.948Z,12.10
2023-04-16T05:52:33.059Z,12.15
2023-04-16T05:55:07.254Z,12.48
2023-04-16T05:57:42.189Z,12.73
2023-04-16T06:00:15.640Z,12.39
2023-04-16T06:02:48.857Z,12.42
2023-04-16T06:05:21.871Z,12.85
2023-04-16T06:07:56.034Z,13.03
2023-04-16T06:10:29.669Z,12.93
2023-04-16T06:13:05.146Z,12.98
2023-04-16T06:15:38.190Z,13.13
2023-04-16T06:18:11.067Z,13.22
2023-04-16T06:20:44.064Z,13.26
2023-04-16T06:23:17.256Z,13.28
2023-04-16T06:25:50.396Z,13.56
2023-04-16T06:28:24.979Z,13.61
2023-04-16T06:30:58.238Z,13.54
2023-04-16T06:33:31.310Z,13.43
2023-04-16T06:36:04.518Z,13.52
2023-04-16T06:38:37.989Z,13.40
2023-04-16T06:41:11.504Z,13.28
2023-04-16T06:43:46.797Z,13.41
2023-04-16T06:46:19.858Z,13.63
2023-04-16T06:48:52.910Z,13.48
2023-04-16T06:51:26.747Z,13.48
2023-04-16T06:53:59.934Z,13.16
2023-04-16T06:56:33.346Z,13.53
2023-04-16T06:59:08.339Z,13.56
2023-04-16T07:01:41.535Z,13.57
2023-04-16T07:04:14.652Z,13.62
2023-04-16T07:06:47.701Z,13.85
2023-04-16T07:09:21.000Z,13.93
2023-04-16T07:12:03.047Z,13.74
2023-04-16T07:14:37.559Z,13.61
2023-04-16T07:17:10.557Z,13.76
2023-04-16T07:19:43.628Z,14.20
2023-04-16T07:22:17.012Z,14.43
2023-04-16T07:24:50.349Z,14.53
2023-04-16T07:27:23.802Z,14.53
2023-04-16T07:29:58.095Z,14.52
2023-04-16T07:32:31.179Z,14.66
2023-04-16T07:35:04.922Z,14.64
2023-04-16T07:37:38.978Z,14.82
2023-04-16T07:40:12.622Z,14.89
2023-04-16T07:42:45.679Z,14.98
2023-04-16T07:45:20.356Z,14.93
2023-04-16T07:47:53.338Z,14.74
2023-04-16T07:50:26.270Z,14.80
2023-04-16T07:52:59.458Z,14.88
2023-04-16T07:55:32.746Z,14.87
2023-04-16T07:58:06.505Z,14.84
2023-04-16T08:00:40.854Z,15.11
2023-04-16T08:03:13.968Z,15.32
2023-04-16T08:05:47.584Z,15.39
2023-04-16T08:08:20.847Z,15.42
2023-04-16T08:10:56.031Z,15.43
2023-04-16T08:13:32.318Z,15.36
2023-04-16T08:16:08.625Z,15.38
2023-04-16T08:18:41.706Z,15.23
2023-04-16T08:21:14.582Z,15.26
2023-04-16T08:23:48.087Z,15.26
2023-04-16T08:26:21.381Z,15.34
2023-04-16T08:28:54.572Z,15.41
2023-04-16T08:31:29.140Z,15.34
2023-04-16T08:34:02.524Z,15.27
2023-04-16T08:36:35.539Z,15.37
2023-04-16T08:39:09.482Z,15.39
2023-04-16T08:41:44.878Z,15.48
2023-04-16T08:44:21.451Z,15.46
2023-04-16T08:46:58.238Z,15.56
2023-04-16T08:49:33.530Z,15.45
2023-04-16T08:52:07.424Z,15.58
2023-04-16T08:54:45.129Z,15.50
2023-04-16T08:57:20.239Z,15.51
2023-04-16T08:59:55.481Z,15.61
2023-04-16T09:02:30.739Z,15.57
2023-04-16T09:05:04.690Z,15.59
2023-04-16T09:07:37.968Z,15.57
2023-04-16T09:10:11.310Z,15.55
2023-04-16T09:12:45.349Z,15.59
2023-04-16T09:15:21.639Z,15.64
2023-04-16T09:17:57.672Z,15.70
2023-04-16T09:20:31.000Z,15.72
2023-04-16T09:23:04.031Z,15.70
2023-04-16T09:25:37.379Z,15.71
2023-04-16T09:28:10.909Z,15.73
2023-04-16T09:30:44.295Z,15.79
2023-04-16T09:33:22.558Z,15.83
2023-04-16T09:35:56.022Z,15.83
2023-04-16T09:38:46.440Z,15.97
2023-04-16T09:41:20.067Z,16.00
2023-04-16T09:43:57.698Z,16.01
2023-04-16T09:46:31.417Z,16.02
2023-04-16T09:49:09.957Z,15.98
2023-04-16T09:51:43.957Z,16.06
2023-04-16T09:54:16.928Z,16.22
2023-04-16T09:56:49.920Z,16.52
2023-04-16T09:59:23.553Z,16.68
2023-04-16T10:02:15.418Z,16.81
2023-04-16T10:04:51.838Z,17.09
2023-04-16T10:07:29.018Z,16.94
2023-04-16T10:10:02.432Z,16.86
2023-04-16T10:12:36.670Z,16.76
2023-04-16T10:15:10.407Z,16.69
2023-04-16T10:17:44.191Z,16.66
2023-04-16T10:20:19.058Z,16.58
2023-04-16T10:22:52.052Z,16.45
2023-04-16T10:25:25.731Z,16.36
2023-04-16T10:28:00.118Z,16.26
2023-04-16T10:30:33.445Z,16.21
2023-04-16T10:33:07.109Z,16.11
2023-04-16T10:35:42.029Z,16.04
2023-04-16T10:38:25.613Z,15.91
2023-04-16T10:41:03.079Z,15.92
2023-04-16T10:43:40.546Z,15.89
2023-04-16T10:46:32.789Z,15.93
2023-04-16T10:49:13.942Z,16.03
2023-04-16T10:51:58.173Z,16.48
2023-04-16T10:54:31.894Z,16.94
2023-04-16T10:57:05.626Z,17.03
2023-04-16T10:59:39.747Z,16.90
2023-04-16T11:02:14.716Z,16.96
2023-04-16T11:04:49.109Z,17.18
2023-04-16T11:07:32.654Z,16.99
2023-04-16T11:10:06.237Z,16.78
2023-04-16T11:12:40.525Z,16.99
2023-04-16T11:15:15.128Z,17.35
2023-04-16T11:17:50.482Z,17.38
2023-04-16T11:20:24.828Z,17.30
2023-04-16T11:22:59.535Z,17.20
2023-04-16T11:25:34.242Z,17.26
2023-04-16T11:28:07.609Z,17.14
2023-04-16T11:30:41.666Z,17.09
2023-04-16T11:33:14.692Z,17.14
2023-04-16T11:35:57.349Z,16.99
2023-04-16T11:38:36.416Z,17.00
2023-04-16T11:41:09.875Z,16.90
2023-04-16T11:43:43.151Z,16.85
2023-04-16T11:46:27.027Z,16.77
2023-04-16T11:49:01.145Z,16.76
2023-04-16T11:51:34.130Z,16.76
2023-04-16T11:54:11.692Z,16.82
2023-04-16T11:56:46.778Z,16.82
2023-04-16T11:59:20.647Z,16.92
2023-04-16T12:01:55.769Z,16.78
2023-04-16T12:04:29.580Z,16.80
2023-04-16T12:07:06.240Z,16.82
2023-04-16T12:09:41.448Z,16.81
2023-04-16T12:12:27.765Z,16.92
2023-04-16T12:15:03.737Z,16.77
2023-04-16T12:17:37.714Z,16.76
2023-04-16T12:20:11.971Z,16.85
2023-04-16T12:22:46.180Z,16.83
2023-04-16T12:25:20.990Z,16.81
2023-04-16T12:27:56.453Z,16.92
2023-04-16T12:30:31.014Z,16.94
2023-04-16T12:33:17.463Z,16.99
2023-04-16T12:35:51.108Z,17.04
2023-04-16T12:38:34.400Z,17.14
2023-04-16T12:41:08.787Z,17.04
2023-04-16T12:43:42.010Z,17.10
2023-04-16T12:46:15.924Z,17.27
2023-04-16T12:48:49.863Z,17.49
2023-04-16T12:51:22.975Z,17.53
2023-04-16T12:53:56.432Z,17.54
2023-04-16T12:56:31.556Z,17.54
2023-04-16T12:59:05.024Z,17.44
2023-04-16T13:01:38.144Z,17.50
2023-04-16T13:04:11.337Z,17.43
2023-04-16T13:06:44.413Z,17.49
2023-04-16T13:09:18.185Z,17.36
2023-04-16T13:12:03.914Z,17.38
2023-04-16T13:14:37.323Z,17.45
2023-04-16T13:17:10.781Z,17.52
2023-04-16T13:19:43.672Z,17.49
2023-04-16T13:22:16.846Z,17.56
2023-04-16T13:24:50.052Z,17.51
2023-04-16T13:27:24.475Z,17.62
2023-04-16T13:29:57.416Z,17.67
2023-04-16T13:32:30.761Z,17.73
2023-04-16T13:35:03.749Z,17.79
2023-04-16T13:37:36.842Z,17.81
2023-04-16T13:40:10.790Z,17.92
2023-04-16T13:42:45.326Z,17.91
2023-04-16T13:45:20.388Z,17.72
2023-04-16T13:47:54.049Z,17.79
2023-04-16T13:50:27.050Z,17.84
2023-04-16T13:53:00.756Z,17.75
2023-04-16T13:55:34.077Z,17.94
2023-04-16T13:58:08.634Z,17.89
2023-04-16T14:00:41.764Z,17.87
2023-04-16T14:03:14.942Z,17.81
2023-04-16T14:05:47.958Z,17.80
2023-04-16T14:08:21.333Z,17.85
2023-04-16T14:10:55.812Z,17.79
2023-04-16T14:13:30.579Z,17.82
2023-04-16T14:16:03.735Z,17.77
2023-04-16T14:18:41.061Z,17.81
2023-04-16T14:21:14.208Z,17.91
2023-04-16T14:23:47.508Z,18.00
2023-04-16T14:26:20.738Z,17.89
2023-04-16T14:28:55.186Z,17.94
2023-04-16T14:31:28.146Z,17.92
2023-04-16T14:34:01.465Z,17.92
2023-04-16T14:36:34.899Z,17.94
2023-04-16T14:39:09.485Z,17.92
2023-04-16T14:41:42.826Z,17.98
2023-04-16T14:44:17.162Z,17.92
2023-04-16T14:46:50.296Z,18.03
2023-04-16T14:49:28.319Z,17.98
2023-04-16T14:52:02.229Z,17.98
2023-04-16T14:54:35.376Z,17.96
2023-04-16T14:57:08.275Z,17.96
2023-04-16T14:59:43.353Z,17.95
2023-04-16T15:02:16.739Z,17.91
2023-04-16T15:04:49.760Z,17.88
2023-04-16T15:07:23.261Z,17.86
2023-04-16T15:09:56.614Z,17.81
2023-04-16T15:12:31.089Z,17.83
2023-04-16T15:15:06.056Z,17.77
2023-04-16T15:17:39.147Z,17.79
2023-04-16T15:20:13.179Z,17.74
2023-04-16T15:22:46.443Z,17.58
2023-04-16T15:25:19.585Z,17.55
2023-04-16T15:27:52.436Z,17.51
2023-04-16T15:30:26.898Z,17.44
2023-04-16T15:32:59.904Z,17.46
2023-04-16T15:35:33.047Z,17.27
2023-04-16T15:38:06.293Z,17.22
2023-04-16T15:40:39.653Z,17.04
2023-04-16T15:43:12.662Z,17.26
2023-04-16T15:45:47.055Z,17.30
2023-04-16T15:48:20.013Z,17.09
2023-04-16T15:50:53.372Z,16.95
2023-04-16T15:53:26.661Z,17.07
2023-04-16T15:55:59.866Z,17.11
2023-04-16T15:58:32.753Z,17.08
2023-04-16T16:01:07.183Z,17.12
2023-04-16T16:03:40.367Z,17.07
2023-04-16T16:06:13.838Z,17.01
2023-04-16T16:08:46.908Z,16.80
2023-04-16T16:11:20.629Z,16.79
2023-04-16T16:13:54.845Z,16.68
2023-04-16T16:16:30.187Z,16.73
2023-04-16T16:19:03.344Z,16.63
2023-04-16T16:21:36.426Z,16.94
2023-04-16T16:24:09.659Z,16.73
2023-04-16T16:26:43.409Z,16.48
2023-04-16T16:29:16.670Z,16.28
2023-04-16T16:31:51.212Z,16.32
2023-04-16T16:34:24.305Z,16.19
2023-04-16T16:36:57.384Z,16.01
2023-04-16T16:39:30.658Z,15.86
2023-04-16T16:42:04.158Z,15.93
2023-04-16T16:50:18.901Z,16.13
2023-04-16T16:52:52.345Z,15.77
2023-04-16T16:55:25.647Z,15.69
2023-04-16T16:57:59.144Z,15.76
2023-04-16T17:00:32.183Z,15.59
2023-04-16T17:03:06.560Z,15.50
2023-04-16T17:05:39.490Z,15.54
2023-04-16T17:08:12.538Z,15.44
2023-04-16T17:10:45.941Z,15.30
2023-04-16T17:13:20.654Z,15.14
2023-04-16T17:15:54.192Z,15.48
2023-04-16T17:18:28.745Z,15.12
2023-04-16T17:21:01.721Z,15.08
2023-04-16T17:23:34.643Z,15.33
2023-04-16T17:26:07.727Z,15.39
2023-04-16T17:28:41.321Z,15.37
2023-04-16T17:31:14.912Z,15.30
2023-04-16T17:33:50.628Z,15.44
2023-04-16T17:36:23.968Z,15.39
2023-04-16T17:38:57.251Z,15.18
2023-04-16T17:41:30.599Z,15.19
2023-04-16T17:44:03.842Z,15.26
2023-04-16T17:46:36.890Z,15.08
2023-04-16T17:49:12.535Z,15.28
2023-04-16T17:51:45.661Z,14.89
2023-04-16T17:54:18.944Z,15.05
2023-04-16T17:56:52.265Z,14.74
2023-04-16T17:59:25.951Z,14.52
2023-04-16T18:01:59.252Z,14.49
2023-04-16T18:04:34.263Z,14.51
2023-04-16T18:07:07.277Z,14.51
2023-04-16T18:09:40.851Z,14.48
2023-04-16T18:12:14.895Z,14.49
2023-04-16T18:14:48.091Z,14.34
2023-04-16T18:17:22.806Z,14.36
2023-04-16T18:19:57.337Z,14.26
2023-04-16T18:22:30.454Z,14.65
2023-04-16T18:25:04.447Z,14.90
2023-04-16T18:27:37.822Z,14.48
2023-04-16T18:30:20.157Z,14.42
2023-04-16T18:35:36.213Z,14.19
2023-04-16T18:38:09.448Z,14.42
2023-04-16T18:40:42.765Z,14.50
2023-04-16T18:43:15.950Z,14.41
2023-04-16T18:45:48.904Z,14.39
2023-04-16T18:48:21.876Z,14.53
2023-04-16T18:50:58.136Z,14.33
2023-04-16T18:53:31.444Z,14.04
2023-04-16T18:56:05.180Z,14.07
2023-04-16T18:58:38.462Z,13.95
2023-04-16T19:01:13.634Z,14.00
2023-04-16T19:03:46.627Z,14.26
2023-04-16T19:06:21.134Z,14.29
2023-04-16T19:08:54.436Z,14.06
2023-04-16T19:11:27.435Z,13.95
2023-04-16T19:14:03.396Z,13.84
2023-04-16T19:16:36.620Z,14.00
2023-04-16T19:19:10.101Z,14.14
2023-04-16T19:21:44.841Z,14.32
2023-04-16T19:24:18.890Z,13.94
2023-04-16T19:26:51.854Z,13.61
2023-04-16T19:29:24.985Z,13.47
2023-04-16T19:31:58.091Z,13.44
2023-04-16T19:34:31.175Z,13.79
2023-04-16T19:37:06.078Z,13.99
2023-04-16T19:39:39.205Z,13.53
2023-04-16T19:42:13.122Z,13.20
2023-04-16T19:44:46.720Z,13.56
2023-04-16T19:47:20.029Z,13.91
2023-04-16T19:49:53.011Z,13.91
2023-04-16T19:52:27.804Z,13.56
2023-04-16T19:55:00.855Z,13.51
2023-04-16T19:57:34.315Z,13.48
2023-04-16T20:00:12.003Z,13.61
2023-04-16T20:02:45.226Z,13.59
2023-04-16T20:05:18.500Z,14.13
2023-04-16T20:07:53.270Z,13.76
2023-04-16T20:10:26.661Z,14.06
2023-04-16T20:13:00.552Z,13.34
2023-04-16T20:15:33.570Z,13.16
2023-04-16T20:18:07.520Z,13.12
2023-04-16T20:20:41.568Z,13.38
2023-04-16T20:23:16.254Z,13.32
2023-04-16T20:25:49.253Z,13.70
2023-04-16T20:28:22.306Z,13.80
2023-04-16T20:30:55.371Z,13.53
2023-04-16T20:33:28.291Z,13.50
2023-04-16T20:36:01.583Z,13.55
2023-04-16T20:38:37.576Z,13.78
2023-04-16T20:41:20.310Z,13.62
2023-04-16T20:43:54.050Z,13.32
2023-04-16T20:46:30.293Z,13.36
2023-04-16T20:49:03.719Z,13.74
2023-04-16T20:51:38.423Z,13.56
2023-04-16T20:54:12.874Z,13.48
2023-04-16T20:56:45.939Z,13.70
2023-04-16T20:59:19.222Z,13.55
2023-04-16T21:01:53.053Z,13.14
2023-04-16T21:04:26.599Z,13.19
2023-04-16T21:07:04.283Z,13.52
2023-04-16T21:09:38.816Z,13.93
2023-04-16T21:12:12.324Z,13.48
2023-04-16T21:14:45.813Z,13.08
2023-04-16T21:17:19.750Z,13.15
2023-04-16T21:19:52.668Z,13.27
2023-04-16T21:22:25.927Z,13.13
2023-04-16T21:25:02.615Z,12.96
2023-04-16T21:27:35.612Z,12.85
2023-04-16T21:30:09.554Z,13.15
2023-04-16T21:32:42.948Z,12.93
2023-04-16T21:35:16.391Z,12.76
2023-04-16T21:37:49.409Z,12.61
2023-04-16T21:40:24.276Z,12.70
2023-04-16T21:42:57.418Z,12.77
2023-04-16T21:45:31.459Z,12.99
2023-04-16T21:48:04.809Z,12.80
2023-04-16T21:50:37.994Z,13.47
2023-04-16T21:53:10.987Z,13.58
2023-04-16T21:55:45.272Z,13.60
2023-04-16T21:58:18.328Z,13.59
2023-04-16T22:00:52.276Z,13.17
2023-04-16T22:03:28.259Z,12.62
2023-04-16T22:06:01.956Z,12.70
2023-04-16T22:08:35.282Z,12.45
2023-04-16T22:11:09.754Z,12.81
2023-04-16T22:13:43.703Z,13.09
2023-04-16T22:16:17.667Z,12.70
2023-04-16T22:18:50.659Z,13.26
2023-04-16T22:21:23.780Z,13.33
2023-04-16T22:23:57.071Z,13.39
2023-04-16T22:26:31.470Z,13.45
2023-04-16T22:29:04.648Z,13.43
2023-04-16T22:31:38.105Z,13.09
2023-04-16T22:34:11.081Z,12.78
2023-04-16T22:36:44.126Z,12.64
2023-04-16T22:39:17.218Z,12.33
2023-04-16T22:41:51.642Z,12.12
2023-04-16T22:44:24.612Z,12.53
2023-04-16T22:46:58.140Z,12.60
2023-04-16T22:49:33.332Z,12.70
2023-04-16T22:52:06.393Z,12.44
2023-04-16T22:54:39.427Z,12.44
2023-04-16T22:57:13.782Z,12.54
2023-04-16T22:59:46.713Z,12.29
2023-04-16T23:02:20.792Z,12.27
2023-04-16T23:04:53.939Z,12.39
2023-04-16T23:07:27.296Z,12.11
2023-04-16T23:10:00.339Z,12.45
2023-04-16T23:12:37.159Z,12.99
2023-04-16T23:15:11.598Z,12.74
2023-04-16T23:17:45.669Z,12.30
2023-04-16T23:20:18.927Z,12.46
2023-04-16T23:22:52.832Z,12.40
2023-04-16T23:25:25.751Z,12.67
2023-04-16T23:28:00.192Z,12.39
2023-04-16T23:30:33.390Z,12.82
2023-04-16T23:33:06.822Z,13.03
2023-04-16T23:35:39.977Z,13.04
2023-04-16T23:38:12.973Z,12.81
2023-04-16T23:40:45.981Z,12.99
2023-04-16T23:43:20.356Z,12.44
2023-04-16T23:45:53.522Z,12.43
2023-04-16T23:48:26.738Z,12.38
2023-04-16T23:51:00.604Z,12.24
2023-04-16T23:53:33.530Z,12.59
2023-04-16T23:56:06.868Z,13.04
2023-04-16T23:58:41.257Z,13.08
